createdAt,value
2023-05-21T00:02:23.155Z,101350.72
2023-05-21T00:04:55.581Z,101332.72
2023-05-21T00:07:25.682Z,101330.97
2023-05-21T00:09:55.795Z,101347.44
2023-05-21T00:12:25.800Z,101322.50
2023-05-21T00:14:55.633Z,101326.69
2023-05-21T00:17:26.408Z,101334.47
2023-05-21T00:20:00.295Z,101323.19
2023-05-21T00:22:30.179Z,101319.69
2023-05-21T00:25:00.015Z,101324.06
2023-05-21T00:27:29.816Z,101315.41
2023-05-21T00:29:59.680Z,101317.88
2023-05-21T00:32:29.525Z,101312.78
2023-05-21T00:35:01.971Z,101308.44
2023-05-21T00:37:34.560Z,101298.66
2023-05-21T00:40:04.966Z,101298.66
2023-05-21T00:42:39.451Z,101305.63
2023-05-21T00:45:11.321Z,101285.59
2023-05-21T00:47:41.940Z,101304.56
2023-05-21T00:50:15.157Z,101295.97
2023-05-21T00:52:46.647Z,101293.47
2023-05-21T00:55:16.496Z,101289.09
2023-05-21T00:57:46.408Z,101293.31
2023-05-21T01:00:17.953Z,101291.59
2023-05-21T01:02:50.059Z,101294.19
2023-05-21T01:05:23.282Z,101291.56
2023-05-21T01:07:53.294Z,101288.13
2023-05-21T01:10:23.379Z,101291.41
2023-05-21T01:12:55.327Z,101292.22
2023-05-21T01:15:25.201Z,101284.47
2023-05-21T01:17:56.057Z,101292.16
2023-05-21T01:20:30.647Z,101287.84
2023-05-21T01:23:03.531Z,101275.72
2023-05-21T01:25:33.430Z,101297.25
2023-05-21T01:28:03.414Z,101293.66
2023-05-21T01:30:33.436Z,101279.19
2023-05-21T01:33:06.820Z,101294.69
2023-05-21T01:35:41.653Z,101266.31
2023-05-21T01:38:20.821Z,101274.97
2023-05-21T01:40:58.851Z,101263.69
2023-05-21T01:43:30.701Z,101284.25
2023-05-21T01:46:02.683Z,101280.72
2023-05-21T01:48:33.377Z,101271.28
2023-05-21T01:51:06.433Z,101275.66
2023-05-21T01:53:38.943Z,101277.25
2023-05-21T01:56:09.472Z,101271.22
2023-05-21T01:58:39.316Z,101263.50
2023-05-21T02:01:09.193Z,101280.78
2023-05-21T02:03:39.058Z,101267.91
2023-05-21T02:06:08.907Z,101272.22
2023-05-21T02:08:41.398Z,101266.16
2023-05-21T02:11:11.225Z,101264.53
2023-05-21T02:13:42.812Z,101237.06
2023-05-21T02:16:14.965Z,101257.78
2023-05-21T02:18:47.138Z,101259.41
2023-05-21T02:21:16.986Z,101255.78
2023-05-21T02:23:49.394Z,101247.16
2023-05-21T02:26:19.862Z,101252.25
2023-05-21T02:28:49.656Z,101250.59
2023-05-21T02:31:19.940Z,101253.16
2023-05-21T02:33:49.823Z,101238.53
2023-05-21T02:36:19.672Z,101256.59
2023-05-21T02:38:52.210Z,101256.56
2023-05-21T02:41:24.413Z,101209.88
2023-05-21T02:43:54.275Z,101259.22
2023-05-21T02:46:24.184Z,101255.69
2023-05-21T02:48:55.002Z,101248.88
2023-05-21T02:51:24.902Z,101253.13
2023-05-21T02:53:57.414Z,101257.38
2023-05-21T02:56:27.395Z,101246.22
2023-05-21T02:58:57.192Z,101249.53
2023-05-21T03:01:27.088Z,101241.81
2023-05-21T03:03:57.030Z,101252.13
2023-05-21T03:06:27.131Z,101242.56
2023-05-21T03:08:59.567Z,101245.13
2023-05-21T03:11:29.392Z,101242.47
2023-05-21T03:14:00.441Z,101234.66
2023-05-21T03:16:34.767Z,101237.97
2023-05-21T03:19:04.832Z,101221.66
2023-05-21T03:21:35.200Z,101239.75
2023-05-21T03:24:08.338Z,101240.53
2023-05-21T03:26:38.254Z,101240.53
2023-05-21T03:29:08.299Z,101233.72
2023-05-21T03:31:39.185Z,101221.56
2023-05-21T03:34:14.246Z,101227.63
2023-05-21T03:36:44.044Z,101210.28
2023-05-21T03:39:16.720Z,101228.28
2023-05-21T03:41:46.731Z,101234.06
2023-05-21T03:44:24.576Z,101215.13
2023-05-21T03:46:59.367Z,101224.75
2023-05-21T03:49:38.021Z,101228.19
2023-05-21T03:52:10.620Z,101232.63
2023-05-21T03:54:43.207Z,101218.00
2023-05-21T03:57:13.077Z,101210.28
2023-05-21T03:59:43.634Z,101237.06
2023-05-21T04:02:13.639Z,101221.75
2023-05-21T04:04:45.752Z,101217.38
2023-05-21T04:07:15.699Z,101215.66
2023-05-21T04:09:48.743Z,101232.94
2023-05-21T04:12:20.377Z,101244.03
2023-05-21T04:14:50.638Z,101233.06
2023-05-21T04:17:21.955Z,101242.50
2023-05-21T04:19:53.592Z,101220.97
2023-05-21T04:22:26.776Z,101241.69
2023-05-21T04:24:59.833Z,101243.41
2023-05-21T04:27:34.753Z,101227.09
2023-05-21T04:30:04.687Z,101228.81
2023-05-21T04:32:36.641Z,101242.63
2023-05-21T04:35:06.919Z,101219.47
2023-05-21T04:37:37.835Z,101245.47
2023-05-21T04:40:11.791Z,101248.00
2023-05-21T04:42:41.645Z,101242.97
2023-05-21T04:45:13.412Z,101252.50
2023-05-21T04:47:46.328Z,101222.22
2023-05-21T04:50:16.218Z,101227.28
2023-05-21T04:52:46.005Z,101252.41
2023-05-21T04:55:19.312Z,101249.84
2023-05-21T04:57:49.179Z,101259.94
2023-05-21T05:00:19.356Z,101247.00
2023-05-21T05:02:49.559Z,101254.75
2023-05-21T05:05:19.678Z,101252.28
2023-05-21T05:07:49.479Z,101255.63
2023-05-21T05:10:21.939Z,101256.59
2023-05-21T05:12:52.020Z,101249.69
2023-05-21T05:15:22.131Z,101248.97
2023-05-21T05:17:53.231Z,101249.91
2023-05-21T05:20:23.069Z,101241.25
2023-05-21T05:22:53.748Z,101235.97
2023-05-21T05:25:26.436Z,101238.81
2023-05-21T05:27:56.321Z,101234.63
2023-05-21T05:30:26.149Z,101225.34
2023-05-21T05:32:58.738Z,101215.00
2023-05-21T05:35:28.572Z,101222.63
2023-05-21T05:37:59.547Z,101237.31
2023-05-21T05:40:32.122Z,101227.19
2023-05-21T05:43:01.936Z,101233.16
2023-05-21T05:45:31.785Z,101237.47
2023-05-21T05:48:02.009Z,101235.88
2023-05-21T05:50:32.084Z,101241.03
2023-05-21T05:53:01.937Z,101218.66
2023-05-21T05:55:35.256Z,101205.88
2023-05-21T05:58:05.772Z,101236.13
2023-05-21T06:00:42.211Z,101236.16
2023-05-21T06:03:12.548Z,101239.44
2023-05-21T06:05:42.669Z,101221.31
2023-05-21T06:08:12.500Z,101222.41
2023-05-21T06:10:44.876Z,101230.25
2023-05-21T06:13:14.681Z,101217.53
2023-05-21T06:15:44.822Z,101208.09
2023-05-21T06:18:14.693Z,101191.97
2023-05-21T06:20:44.964Z,101204.06
2023-05-21T06:23:15.492Z,101198.00
2023-05-21T06:25:50.264Z,101230.06
2023-05-21T06:28:20.475Z,101227.41
2023-05-21T06:30:51.913Z,101209.41
2023-05-21T06:33:23.496Z,101222.34
2023-05-21T06:35:53.562Z,101206.91
2023-05-21T06:38:23.443Z,101210.94
2023-05-21T06:40:55.882Z,101214.34
2023-05-21T06:43:40.166Z,101219.50
2023-05-21T06:46:28.690Z,101214.38
2023-05-21T06:48:58.712Z,101199.72
2023-05-21T06:51:28.552Z,101214.53
2023-05-21T06:53:58.847Z,101202.44
2023-05-21T06:56:31.365Z,101213.69
2023-05-21T06:59:01.192Z,101187.06
2023-05-21T07:01:31.102Z,101205.22
2023-05-21T07:04:01.090Z,101202.56
2023-05-21T07:06:30.903Z,101213.94
2023-05-21T07:09:00.975Z,101189.03
2023-05-21T07:11:33.511Z,101200.94
2023-05-21T07:14:06.710Z,101195.00
2023-05-21T07:16:39.361Z,101205.50
2023-05-21T07:19:09.639Z,101211.66
2023-05-21T07:21:39.590Z,101206.59
2023-05-21T07:24:10.816Z,101216.13
2023-05-21T07:26:45.501Z,101210.22
2023-05-21T07:29:15.774Z,101213.66
2023-05-21T07:31:45.659Z,101209.44
2023-05-21T07:34:15.688Z,101206.84
2023-05-21T07:36:45.523Z,101217.22
2023-05-21T07:39:15.515Z,101220.69
2023-05-21T07:41:48.425Z,101193.16
2023-05-21T07:44:18.750Z,101213.91
2023-05-21T07:46:49.463Z,101220.81
2023-05-21T07:49:20.164Z,101211.41
2023-05-21T07:51:51.360Z,101199.41
2023-05-21T07:54:22.461Z,101210.56
2023-05-21T07:56:54.865Z,101198.50
2023-05-21T07:59:44.572Z,101212.25
2023-05-21T08:02:14.692Z,101202.75
2023-05-21T08:04:44.965Z,101201.94
2023-05-21T08:07:19.927Z,101197.69
2023-05-21T08:09:49.948Z,101202.06
2023-05-21T08:12:22.393Z,101178.78
2023-05-21T08:14:52.292Z,101196.91
2023-05-21T08:17:22.165Z,101195.19
2023-05-21T08:19:52.225Z,101196.13
2023-05-21T08:22:22.103Z,101177.19
2023-05-21T08:24:52.740Z,101183.25
2023-05-21T08:27:25.198Z,101163.47
2023-05-21T08:29:55.269Z,101193.59
2023-05-21T08:32:25.116Z,101207.38
2023-05-21T08:34:56.596Z,101190.16
2023-05-21T08:37:43.024Z,101197.03
2023-05-21T08:40:31.042Z,101197.03
2023-05-21T08:43:04.321Z,101174.66
2023-05-21T08:45:44.606Z,101207.38
2023-05-21T08:48:14.669Z,101206.50
2023-05-21T08:50:45.903Z,101194.44
2023-05-21T08:53:27.998Z,101202.16
2023-05-21T08:55:59.962Z,101203.81
2023-05-21T08:58:45.407Z,101205.44
2023-05-21T09:01:18.884Z,101204.63
2023-05-21T09:03:55.642Z,101201.22
2023-05-21T09:06:28.931Z,101202.06
2023-05-21T09:09:05.369Z,101208.06
2023-05-21T09:11:50.192Z,101198.66
2023-05-21T09:14:24.340Z,101183.16
2023-05-21T09:17:04.212Z,101207.28
2023-05-21T09:19:34.990Z,101189.22
2023-05-21T09:22:06.381Z,101191.75
2023-05-21T09:24:37.038Z,101198.59
2023-05-21T09:27:10.113Z,101204.59
2023-05-21T09:29:45.079Z,101180.53
2023-05-21T09:32:14.928Z,101198.56
2023-05-21T09:34:44.861Z,101167.53
2023-05-21T09:37:26.633Z,101188.81
2023-05-21T09:39:57.856Z,101177.56
2023-05-21T09:42:27.684Z,101201.53
2023-05-21T09:45:00.539Z,101190.22
2023-05-21T09:47:30.446Z,101191.91
2023-05-21T09:50:01.195Z,101199.56
2023-05-21T09:52:31.049Z,101198.78
2023-05-21T09:55:01.633Z,101184.97
2023-05-21T09:57:32.441Z,101185.72
2023-05-21T10:00:06.665Z,101146.19
2023-05-21T10:02:47.537Z,101174.72
2023-05-21T10:05:18.439Z,101172.09
2023-05-21T10:07:53.880Z,101169.25
2023-05-21T10:10:24.687Z,101155.38
2023-05-21T10:13:01.792Z,101170.63
2023-05-21T10:15:48.814Z,101157.91
2023-05-21T10:18:21.790Z,101130.38
2023-05-21T10:20:52.308Z,101158.59
2023-05-21T10:23:23.362Z,101172.31
2023-05-21T10:25:55.206Z,101172.34
2023-05-21T10:28:26.837Z,101167.75
2023-05-21T10:30:59.623Z,101127.13
2023-05-21T10:33:30.764Z,101155.28
2023-05-21T10:36:01.572Z,101162.63
2023-05-21T10:38:33.215Z,101145.03
2023-05-21T10:41:05.104Z,101162.34
2023-05-21T10:43:47.258Z,101130.72
2023-05-21T10:46:38.453Z,101146.19
2023-05-21T10:49:29.367Z,101135.50
2023-05-21T10:52:17.149Z,101152.19
2023-05-21T10:55:00.637Z,101131.66
2023-05-21T10:57:54.930Z,101123.97
2023-05-21T11:00:26.972Z,101103.91
2023-05-21T11:03:02.002Z,101106.97
2023-05-21T11:05:44.924Z,101096.47
2023-05-21T11:08:30.630Z,101123.88
2023-05-21T11:11:01.719Z,101111.63
2023-05-21T11:13:33.871Z,101124.03
2023-05-21T11:16:10.859Z,101122.84
2023-05-21T11:19:07.133Z,101116.88
2023-05-21T11:21:38.082Z,101102.56
2023-05-21T11:24:11.172Z,101106.72
2023-05-21T11:27:04.634Z,101109.88
2023-05-21T11:29:58.870Z,101106.13
2023-05-21T11:32:30.004Z,101097.88
2023-05-21T11:35:03.929Z,101099.50
2023-05-21T11:37:35.207Z,101085.53
2023-05-21T11:40:27.410Z,101105.88
2023-05-21T11:42:58.777Z,101084.06
2023-05-21T11:45:32.826Z,101091.28
2023-05-21T11:48:03.310Z,101040.72
2023-05-21T11:50:37.871Z,101095.81
2023-05-21T11:53:09.300Z,101077.88
2023-05-21T11:55:43.675Z,101048.34
2023-05-21T11:58:19.397Z,101091.41
2023-05-21T12:00:53.584Z,101082.88
2023-05-21T12:03:27.251Z,101080.56
2023-05-21T12:06:08.628Z,101085.00
2023-05-21T12:08:38.577Z,101057.66
2023-05-21T12:11:08.598Z,101081.59
2023-05-21T12:13:38.522Z,101075.16
2023-05-21T12:16:09.573Z,101068.28
2023-05-21T12:18:40.047Z,101054.41
2023-05-21T12:21:13.008Z,101051.69
2023-05-21T12:23:42.871Z,101047.22
2023-05-21T12:26:12.809Z,101055.72
2023-05-21T12:28:42.805Z,101072.03
2023-05-21T12:31:17.986Z,101030.81
2023-05-21T12:33:49.357Z,101036.53
2023-05-21T12:36:30.516Z,101043.63
2023-05-21T12:39:00.939Z,101061.53
2023-05-21T12:41:32.581Z,101048.75
2023-05-21T12:44:02.504Z,101051.81
2023-05-21T12:46:32.480Z,101054.94
2023-05-21T12:49:02.394Z,101059.09
2023-05-21T12:51:43.163Z,101046.25
2023-05-21T12:54:16.211Z,101053.75
2023-05-21T12:56:49.466Z,101051.13
2023-05-21T12:59:19.294Z,101054.41
2023-05-21T13:01:50.541Z,101043.63
2023-05-21T13:04:22.374Z,101044.53
2023-05-21T13:06:54.914Z,101054.41
2023-05-21T13:09:24.760Z,101052.50
2023-05-21T13:11:54.594Z,101034.94
2023-05-21T13:14:24.452Z,101027.91
2023-05-21T13:16:54.274Z,101040.59
2023-05-21T13:19:24.182Z,101022.19
2023-05-21T13:21:56.805Z,101036.13
2023-05-21T13:24:26.682Z,101005.88
2023-05-21T13:26:56.497Z,101024.06
2023-05-21T13:29:26.455Z,101018.72
2023-05-21T13:31:56.460Z,101023.91
2023-05-21T13:34:26.282Z,101008.66
2023-05-21T13:36:58.696Z,101024.72
2023-05-21T13:39:28.512Z,101024.56
2023-05-21T13:41:59.410Z,101020.66
2023-05-21T13:44:29.259Z,101018.53
2023-05-21T13:46:59.633Z,100988.06
2023-05-21T13:49:29.503Z,100968.66
2023-05-21T13:52:02.214Z,100957.38
2023-05-21T13:54:32.286Z,101011.59
2023-05-21T13:57:02.209Z,101012.16
2023-05-21T13:59:33.746Z,101000.03
2023-05-21T14:02:04.128Z,100987.53
2023-05-21T14:04:34.058Z,101007.59
2023-05-21T14:07:06.751Z,101006.63
2023-05-21T14:09:37.505Z,100996.28
2023-05-21T14:12:08.094Z,100992.22
2023-05-21T14:14:38.089Z,101001.59
2023-05-21T14:17:08.776Z,100988.97
2023-05-21T14:19:38.821Z,100985.00
2023-05-21T14:22:11.454Z,100993.38
2023-05-21T14:24:41.294Z,100999.69
2023-05-21T14:27:12.606Z,101000.91
2023-05-21T14:29:43.779Z,101003.31
2023-05-21T14:32:13.678Z,100982.47
2023-05-21T14:34:43.591Z,100981.38
2023-05-21T14:37:16.021Z,100990.59
2023-05-21T14:39:45.864Z,100984.28
2023-05-21T14:42:15.703Z,100980.28
2023-05-21T14:44:45.576Z,100986.22
2023-05-21T14:47:15.502Z,100988.56
2023-05-21T14:49:45.340Z,100978.66
2023-05-21T14:52:17.763Z,100991.75
2023-05-21T14:54:48.135Z,100962.19
2023-05-21T14:57:18.129Z,100988.56
2023-05-21T14:59:47.931Z,100985.09
2023-05-21T15:02:17.814Z,100919.94
2023-05-21T15:04:47.620Z,100949.06
2023-05-21T15:07:20.159Z,100968.06
2023-05-21T15:09:49.946Z,100972.81
2023-05-21T15:12:19.732Z,100972.84
2023-05-21T15:14:50.176Z,100974.66
2023-05-21T15:17:19.985Z,100941.03
2023-05-21T15:19:49.822Z,100975.41
2023-05-21T15:22:22.240Z,100932.84
2023-05-21T15:24:52.049Z,100981.38
2023-05-21T15:27:21.915Z,100978.69
2023-05-21T15:29:51.718Z,100977.56
2023-05-21T15:32:21.754Z,100979.16
2023-05-21T15:34:52.022Z,100975.50
2023-05-21T15:37:24.504Z,100933.09
2023-05-21T15:39:54.382Z,100961.25
2023-05-21T15:42:24.186Z,100962.84
2023-05-21T15:44:53.983Z,100960.16
2023-05-21T15:47:23.925Z,100929.00
2023-05-21T15:49:53.763Z,100960.50
2023-05-21T15:52:26.198Z,100937.06
2023-05-21T15:54:56.321Z,100951.63
2023-05-21T15:57:26.117Z,100956.72
2023-05-21T15:59:55.999Z,100933.88
2023-05-21T16:02:25.919Z,100948.22
2023-05-21T16:04:55.771Z,100933.81
2023-05-21T16:07:28.599Z,100943.19
2023-05-21T16:09:58.491Z,100908.94
2023-05-21T16:12:28.807Z,100944.13
2023-05-21T16:14:58.604Z,100920.50
2023-05-21T16:17:28.423Z,100931.06
2023-05-21T16:19:58.242Z,100923.50
2023-05-21T16:22:30.686Z,100914.28
2023-05-21T16:25:00.502Z,100922.81
2023-05-21T16:27:30.324Z,100877.94
2023-05-21T16:30:00.204Z,100925.13
2023-05-21T16:32:30.140Z,100921.78
2023-05-21T16:35:00.080Z,100897.16
2023-05-21T16:37:32.556Z,100907.47
2023-05-21T16:40:02.439Z,100921.38
2023-05-21T16:42:32.330Z,100922.13
2023-05-21T16:45:02.199Z,100878.66
2023-05-21T16:47:32.145Z,100918.31
2023-05-21T16:50:01.998Z,100874.66
2023-05-21T16:52:34.425Z,100913.50
2023-05-21T16:55:05.277Z,100842.56
2023-05-21T16:57:35.108Z,100919.25
2023-05-21T17:00:05.435Z,100914.78
2023-05-21T17:02:35.382Z,100924.06
2023-05-21T17:05:05.351Z,100872.91
2023-05-21T17:07:38.672Z,100915.03
2023-05-21T17:10:09.897Z,100916.59
2023-05-21T17:12:39.713Z,100899.25
2023-05-21T17:15:10.732Z,100924.50
2023-05-21T17:17:40.641Z,100910.75
2023-05-21T17:20:11.836Z,100919.88
2023-05-21T17:22:44.340Z,100920.88
2023-05-21T17:25:15.145Z,100929.44
2023-05-21T17:27:44.971Z,100926.59
2023-05-21T17:30:15.788Z,100931.06
2023-05-21T17:32:45.878Z,100910.75
2023-05-21T17:35:15.799Z,100915.03
2023-05-21T17:37:48.424Z,100913.53
2023-05-21T17:40:21.529Z,100893.41
2023-05-21T17:42:51.324Z,100919.25
2023-05-21T17:45:21.380Z,100924.31
2023-05-21T17:47:51.267Z,100900.34
2023-05-21T17:50:21.469Z,100912.25
2023-05-21T17:52:53.881Z,100880.94
2023-05-21T17:55:23.808Z,100922.97
2023-05-21T17:57:53.603Z,100907.88
2023-05-21T18:00:24.038Z,100928.41
2023-05-21T18:02:53.889Z,100922.84
2023-05-21T18:05:23.886Z,100915.75
2023-05-21T18:07:56.328Z,100911.81
2023-05-21T18:10:26.124Z,100926.53
2023-05-21T18:12:55.936Z,100927.09
2023-05-21T18:15:25.926Z,100936.78
2023-05-21T18:17:57.437Z,100937.66
2023-05-21T18:20:27.310Z,100924.09
2023-05-21T18:22:59.758Z,100929.97
2023-05-21T18:25:29.572Z,100929.38
2023-05-21T18:28:00.301Z,100916.72
2023-05-21T18:30:30.094Z,100907.38
2023-05-21T18:32:59.973Z,100915.16
2023-05-21T18:35:31.231Z,100920.47
2023-05-21T18:38:04.280Z,100910.31
2023-05-21T18:40:34.311Z,100913.09
2023-05-21T18:43:05.279Z,100929.69
2023-05-21T18:45:35.106Z,100927.03
2023-05-21T18:48:05.630Z,100894.56
2023-05-21T18:50:37.266Z,100936.72
2023-05-21T18:53:10.030Z,100914.81
2023-05-21T18:55:39.889Z,100939.09
2023-05-21T18:58:09.710Z,100916.44
2023-05-21T19:00:40.178Z,100927.00
2023-05-21T19:03:10.087Z,100879.34
2023-05-21T19:05:39.933Z,100934.22
2023-05-21T19:08:12.296Z,100909.34
2023-05-21T19:10:42.101Z,100935.13
2023-05-21T19:13:12.021Z,100919.97
2023-05-21T19:15:47.035Z,100937.16
2023-05-21T19:18:17.344Z,100938.22
2023-05-21T19:20:47.198Z,100931.56
2023-05-21T19:23:19.661Z,100921.28
2023-05-21T19:25:49.459Z,100954.00
2023-05-21T19:28:19.241Z,100954.13
2023-05-21T19:30:49.082Z,100948.34
2023-05-21T19:33:19.023Z,100934.09
2023-05-21T19:35:51.133Z,100946.22
2023-05-21T19:38:23.562Z,100964.47
2023-05-21T19:40:53.446Z,100954.59
2023-05-21T19:43:23.310Z,100944.47
2023-05-21T19:45:53.157Z,100948.78
2023-05-21T19:48:22.949Z,100949.75
2023-05-21T19:50:52.731Z,100955.28
2023-05-21T19:53:26.383Z,100947.09
2023-05-21T19:55:56.724Z,100932.78
2023-05-21T19:58:29.696Z,100962.03
2023-05-21T20:01:01.129Z,100975.88
2023-05-21T20:03:35.768Z,100970.81
2023-05-21T20:06:05.924Z,100958.81
2023-05-21T20:08:38.297Z,100959.66
2023-05-21T20:11:08.143Z,100963.25
2023-05-21T20:13:37.924Z,100941.88
2023-05-21T20:16:08.363Z,100968.47
2023-05-21T20:18:38.186Z,100970.16
2023-05-21T20:21:09.014Z,100960.81
2023-05-21T20:23:41.480Z,100966.81
2023-05-21T20:26:11.305Z,100961.91
2023-05-21T20:28:41.201Z,100967.97
2023-05-21T20:31:12.096Z,100957.00
2023-05-21T20:33:42.472Z,100910.81
2023-05-21T20:36:15.423Z,100951.94
2023-05-21T20:38:48.497Z,100970.59
2023-05-21T20:41:18.309Z,100970.75
2023-05-21T20:43:48.138Z,100974.31
2023-05-21T20:46:18.586Z,100967.53
2023-05-21T20:48:49.676Z,100931.69
2023-05-21T20:51:19.723Z,100973.81
2023-05-21T20:53:52.135Z,100957.59
2023-05-21T20:56:37.490Z,100956.06
2023-05-21T20:59:12.214Z,100955.47
2023-05-21T21:01:42.665Z,100956.28
2023-05-21T21:04:12.499Z,100940.22
2023-05-21T21:06:42.292Z,100942.00
2023-05-21T21:09:14.791Z,100959.88
2023-05-21T21:11:44.605Z,100954.94
2023-05-21T21:14:14.394Z,100919.72
2023-05-21T21:16:44.343Z,100948.75
2023-05-21T21:19:14.218Z,100936.97
2023-05-21T21:21:44.051Z,100956.72
2023-05-21T21:24:16.446Z,100937.03
2023-05-21T21:26:46.219Z,100953.50
2023-05-21T21:29:16.057Z,100953.25
2023-05-21T21:31:47.678Z,100930.97
2023-05-21T21:34:17.465Z,100930.13
2023-05-21T21:36:47.276Z,100937.78
2023-05-21T21:39:19.859Z,100956.53
2023-05-21T21:41:49.667Z,100946.59
2023-05-21T21:44:19.475Z,100917.72
2023-05-21T21:46:49.300Z,100905.09
2023-05-21T21:49:19.269Z,100936.81
2023-05-21T21:51:49.409Z,100943.81
2023-05-21T21:54:21.801Z,100935.13
2023-05-21T21:56:51.774Z,100930.09
2023-05-21T21:59:22.516Z,100925.13
2023-05-21T22:01:52.433Z,100939.56
2023-05-21T22:04:22.249Z,100921.59
2023-05-21T22:06:53.867Z,100929.28
2023-05-21T22:09:26.315Z,100899.44
2023-05-21T22:11:56.643Z,100926.81
2023-05-21T22:14:26.424Z,100944.88
2023-05-21T22:16:56.229Z,100939.13
2023-05-21T22:19:26.206Z,100949.66
2023-05-21T22:21:59.961Z,100920.53
2023-05-21T22:24:33.501Z,100941.94
2023-05-21T22:27:03.493Z,100943.53
2023-05-21T22:29:33.294Z,100947.94
2023-05-21T22:32:03.053Z,100935.91
2023-05-21T22:34:32.876Z,100946.19
2023-05-21T22:37:02.641Z,100922.94
2023-05-21T22:39:35.019Z,100932.44
2023-05-21T22:42:04.857Z,100942.91
2023-05-21T22:44:34.778Z,100949.16
2023-05-21T22:47:04.563Z,100944.94
2023-05-21T22:49:34.519Z,100933.00
2023-05-21T22:52:06.467Z,100903.91
2023-05-21T22:54:39.188Z,100938.13
2023-05-21T22:57:08.949Z,100892.03
2023-05-21T22:59:38.765Z,100941.66
2023-05-21T23:02:09.553Z,100924.50
2023-05-21T23:04:44.057Z,100937.25
2023-05-21T23:07:14.806Z,100922.75
2023-05-21T23:09:47.316Z,100941.50
2023-05-21T23:12:17.115Z,100935.53
2023-05-21T23:14:46.877Z,100941.50
2023-05-21T23:17:16.827Z,100941.56
2023-05-21T23:19:46.573Z,100905.63
2023-05-21T23:22:16.382Z,100928.69
2023-05-21T23:24:48.764Z,100944.03
2023-05-21T23:27:18.770Z,100936.34
2023-05-21T23:29:48.577Z,100932.16
2023-05-21T23:32:18.525Z,100926.91
2023-05-21T23:34:48.448Z,100863.56
2023-05-21T23:37:18.296Z,100916.53
2023-05-21T23:39:51.594Z,100923.31
2023-05-21T23:42:21.725Z,100917.38
2023-05-21T23:44:51.478Z,100920.03
2023-05-21T23:47:21.298Z,100897.72
2023-05-21T23:49:51.084Z,100899.41
2023-05-21T23:52:21.228Z,100893.41
2023-05-21T23:54:53.589Z,100912.13
2023-05-21T23:57:23.369Z,100908.81
2023-05-21T23:59:53.170Z,100893.53
